Time;durP1;ratioP1;P1;durP2;ratioP2;P2;SDS_P1;SDS_P2;PMS_P1;PMS_P2;Temp;Humidity;BMP_temperature;BMP_pressure;BME280_temperature;BME280_humidity;BME280_pressure;Samples;Min_cycle;Max_cycle;Signal;HPM_P1;HPM_P2
2021/10/10 00:03:30;;;;;;;2.47;1.10;;;;;;;7.04;100.00;95431.75;10159589;29;20514;-74
2021/10/10 00:08:31;;;;;;;1.48;0.90;;;;;;;7.11;100.00;95427.88;10159412;29;20119;-69
2021/10/10 00:13:31;;;;;;;1.52;1.33;;;;;;;7.13;100.00;95436.50;10159482;29;20028;-72
2021/10/10 00:18:32;;;;;;;1.03;0.93;;;;;;;7.11;100.00;95435.09;10159323;29;20031;-71
2021/10/10 00:23:32;;;;;;;3.22;1.25;;;;;;;7.12;100.00;95434.88;10159314;29;20332;-71
2021/10/10 00:28:32;;;;;;;2.05;1.35;;;;;;;7.05;100.00;95422.66;10163323;29;20557;-72
2021/10/10 00:33:33;;;;;;;1.58;1.00;;;;;;;7.06;100.00;95421.63;10165994;29;20028;-71
2021/10/10 00:38:33;;;;;;;1.67;1.20;;;;;;;7.12;100.00;95420.69;10165699;29;20020;-67
2021/10/10 00:43:34;;;;;;;1.98;1.20;;;;;;;7.15;100.00;95418.34;10181535;29;20402;-68
2021/10/10 00:48:34;;;;;;;1.90;1.45;;;;;;;7.19;100.00;95416.03;10165449;29;20107;-72
2021/10/10 00:53:37;;;;;;;2.13;1.17;;;;;;;7.25;100.00;95415.09;10181871;29;20100;-72
2021/10/10 00:58:40;;;;;;;1.70;1.13;;;;;;;7.30;100.00;95406.38;10165101;29;20333;-71
2021/10/10 01:03:40;;;;;;;1.80;1.35;;;;;;;7.38;100.00;95397.16;10149289;29;20048;-73
2021/10/10 01:08:41;;;;;;;3.33;1.35;;;;;;;7.40;100.00;95381.72;10164850;29;20040;-72
2021/10/10 01:13:42;;;;;;;2.03;1.30;;;;;;;7.42;100.00;95398.31;10164326;29;20088;-70
2021/10/10 01:18:43;;;;;;;1.23;1.05;;;;;;;7.40;100.00;95384.38;10165786;29;20111;-72
2021/10/10 01:23:43;;;;;;;1.65;1.20;;;;;;;7.43;100.00;95375.88;10165502;29;20424;-71
2021/10/10 01:28:44;;;;;;;1.00;0.90;;;;;;;7.51;100.00;95380.84;10164017;29;20406;-72
2021/10/10 01:33:45;;;;;;;0.77;0.68;;;;;;;7.52;100.00;95377.13;10164027;29;20156;-70
2021/10/10 01:38:45;;;;;;;1.60;1.50;;;;;;;7.56;100.00;95372.91;10163150;29;20028;-75
2021/10/10 01:43:46;;;;;;;1.42;0.80;;;;;;;7.61;100.00;95370.34;10179450;29;20028;-69
2021/10/10 01:48:46;;;;;;;0.95;0.73;;;;;;;7.66;100.00;95375.81;10164410;29;20036;-70
2021/10/10 01:53:46;;;;;;;0.70;0.70;;;;;;;7.70;100.00;95368.94;10164730;29;20020;-71
2021/10/10 01:58:47;;;;;;;0.57;0.57;;;;;;;7.77;100.00;95381.34;10163064;29;20782;-72
2021/10/10 02:03:47;;;;;;;1.73;0.90;;;;;;;7.82;100.00;95376.09;10178397;29;20300;-71
2021/10/10 02:08:48;;;;;;;1.05;0.85;;;;;;;7.75;100.00;95386.13;10163879;29;20287;-71
2021/10/10 02:13:48;;;;;;;1.30;1.02;;;;;;;7.80;100.00;95391.56;10178223;29;20187;-76
2021/10/10 02:18:49;;;;;;;1.02;0.80;;;;;;;7.70;100.00;95384.16;10162659;29;20151;-73
2021/10/10 02:23:49;;;;;;;0.85;0.80;;;;;;;7.76;100.00;95395.75;10161813;29;20124;-74
2021/10/10 02:28:49;;;;;;;1.83;1.03;;;;;;;7.77;100.00;95395.53;10162040;29;20036;-67
2021/10/10 02:33:50;;;;;;;0.83;0.67;;;;;;;7.86;100.00;95394.09;10177556;29;20302;-71
2021/10/10 02:38:50;;;;;;;0.90;0.60;;;;;;;7.86;100.00;95387.94;10145576;29;20283;-73
2021/10/10 02:43:51;;;;;;;0.75;0.75;;;;;;;7.94;100.00;95382.19;10177109;29;20793;-74
2021/10/10 02:48:51;;;;;;;1.23;0.80;;;;;;;7.94;100.00;95371.50;10162203;29;20046;-73
2021/10/10 02:53:51;;;;;;;0.73;0.60;;;;;;;8.00;100.00;95362.50;10160010;29;20367;-73
2021/10/10 02:58:52;;;;;;;1.10;0.65;;;;;;;8.01;100.00;95350.75;10161216;29;20272;-69
2021/10/10 03:03:52;;;;;;;1.90;1.00;;;;;;;8.03;100.00;95355.84;10160928;29;20646;-73
2021/10/10 03:08:53;;;;;;;1.58;1.10;;;;;;;8.12;100.00;95348.22;10160928;29;20703;-74
2021/10/10 03:13:53;;;;;;;1.67;1.08;;;;;;;8.15;100.00;95355.75;10161826;29;20036;-73
2021/10/10 03:18:53;;;;;;;2.43;1.40;;;;;;;8.17;100.00;95349.13;10162017;29;20061;-73
2021/10/10 03:23:54;;;;;;;1.13;0.57;;;;;;;8.13;100.00;95349.84;10135287;29;20285;-71
2021/10/10 03:28:54;;;;;;;1.17;0.95;;;;;;;8.11;100.00;95363.50;10121336;29;20041;-69
2021/10/10 03:33:55;;;;;;;2.05;0.95;;;;;;;8.06;100.00;95365.25;10122067;29;20046;-76
2021/10/10 03:38:55;;;;;;;1.45;1.10;;;;;;;8.01;100.00;95353.41;10121486;29;20024;-75
2021/10/10 03:43:56;;;;;;;1.30;0.70;;;;;;;8.08;100.00;95371.19;10153817;29;20032;-75
2021/10/10 03:48:56;;;;;;;1.25;1.10;;;;;;;8.14;100.00;95367.56;10161004;29;20783;-70
2021/10/10 03:59:03;;;;;;;1.27;1.10;;;;;;;8.24;100.00;95369.59;10162010;29;20036;-70
2021/10/10 04:04:03;;;;;;;1.45;1.27;;;;;;;8.25;100.00;95360.47;10180319;29;20107;-76
2021/10/10 04:09:04;;;;;;;1.95;1.27;;;;;;;8.17;100.00;95362.50;10183314;29;20040;-70
2021/10/10 04:14:04;;;;;;;1.38;0.93;;;;;;;8.21;100.00;95366.31;10151065;29;20035;-74
2021/10/10 04:19:05;;;;;;;3.05;1.00;;;;;;;8.20;100.00;95366.56;10167471;29;20486;-76
2021/10/10 04:24:05;;;;;;;1.52;0.95;;;;;;;8.10;100.00;95363.72;10182270;29;20032;-68
2021/10/10 04:29:05;;;;;;;1.03;0.93;;;;;;;8.09;100.00;95365.56;10166211;29;20115;-69
2021/10/10 04:34:06;;;;;;;1.70;0.88;;;;;;;8.16;100.00;95370.78;10166447;29;20666;-71
2021/10/10 04:39:06;;;;;;;0.77;0.65;;;;;;;8.16;100.00;95373.47;10182197;29;20032;-73
2021/10/10 04:44:07;;;;;;;1.90;1.10;;;;;;;8.13;100.00;95368.59;10180970;29;20042;-70
2021/10/10 04:49:07;;;;;;;1.88;0.82;;;;;;;8.10;100.00;95367.22;10181008;29;20550;-73
2021/10/10 04:54:08;;;;;;;2.00;1.05;;;;;;;8.15;100.00;95371.81;10181135;29;20032;-73
2021/10/10 04:59:08;;;;;;;5.27;1.30;;;;;;;8.15;100.00;95369.16;10155185;29;20527;-77
2021/10/10 05:04:08;;;;;;;3.53;1.77;;;;;;;8.13;100.00;95376.63;10183316;29;20307;-76
2021/10/10 05:09:09;;;;;;;2.40;1.70;;;;;;;8.08;100.00;95374.69;10180258;29;20122;-69
2021/10/10 05:14:09;;;;;;;3.78;1.77;;;;;;;8.17;100.00;95383.94;10148187;29;20036;-74
2021/10/10 05:19:10;;;;;;;4.00;2.28;;;;;;;8.14;100.00;95386.28;10164440;29;20036;-73
2021/10/10 05:24:10;;;;;;;3.53;2.10;;;;;;;8.09;100.00;95375.47;10184871;29;20493;-70
2021/10/10 05:29:10;;;;;;;2.13;1.60;;;;;;;7.95;100.00;95389.16;10147045;29;20291;-69
2021/10/10 05:34:11;;;;;;;2.88;1.30;;;;;;;7.93;100.00;95390.47;10154503;29;20830;-71
2021/10/10 05:39:11;;;;;;;3.77;1.97;;;;;;;7.91;100.00;95395.25;10164543;29;20036;-71
2021/10/10 05:44:12;;;;;;;1.52;1.23;;;;;;;7.96;100.00;95392.66;10164666;29;20712;-68
2021/10/10 05:49:12;;;;;;;2.58;1.73;;;;;;;7.90;100.00;95397.13;10168042;29;20023;-72
2021/10/10 05:54:15;;;;;;;3.25;1.52;;;;;;;7.86;100.00;95398.66;10200200;29;20032;-73
2021/10/10 05:59:16;;;;;;;0.93;0.90;;;;;;;7.77;100.00;95400.06;10201311;29;20031;-76
2021/10/10 06:04:17;;;;;;;2.28;1.48;;;;;;;7.73;100.00;95399.75;10202885;28;20147;-74
2021/10/10 06:09:17;;;;;;;2.07;1.03;;;;;;;7.68;100.00;95408.47;10134539;29;20492;-71
2021/10/10 06:14:18;;;;;;;0.80;0.80;;;;;;;7.78;100.00;95405.19;10144984;29;20281;-73
2021/10/10 06:19:18;;;;;;;2.25;1.23;;;;;;;7.83;100.00;95407.16;10160665;29;20419;-71
2021/10/10 06:24:19;;;;;;;2.03;1.48;;;;;;;7.89;100.00;95405.38;10142150;29;20020;-73
2021/10/10 06:29:19;;;;;;;2.03;1.55;;;;;;;7.95;100.00;95404.41;10174619;29;20028;-70
2021/10/10 06:34:19;;;;;;;4.75;2.15;;;;;;;7.98;100.00;95404.75;10151332;29;20040;-72
2021/10/10 06:39:20;;;;;;;3.97;2.27;;;;;;;8.03;100.00;95409.38;10156175;29;20036;-72
2021/10/10 06:44:20;;;;;;;6.95;2.90;;;;;;;8.02;100.00;95397.03;10159489;29;20330;-73
2021/10/10 06:49:21;;;;;;;4.27;2.70;;;;;;;8.08;100.00;95392.59;10159436;29;20036;-68
2021/10/10 06:54:21;;;;;;;4.33;2.70;;;;;;;8.17;100.00;95393.84;10126585;29;20288;-72
2021/10/10 06:59:21;;;;;;;4.50;3.00;;;;;;;8.24;100.00;95394.50;10157817;29;20288;-73
2021/10/10 07:04:22;;;;;;;4.20;2.80;;;;;;;8.37;100.00;95382.63;10178999;29;20727;-73
2021/10/10 07:09:22;;;;;;;6.70;2.50;;;;;;;8.42;100.00;95389.97;10156127;29;20347;-72
2021/10/10 07:14:23;;;;;;;4.10;2.28;;;;;;;8.27;100.00;95395.88;10172842;29;20032;-73
2021/10/10 07:19:27;;;;;;;6.18;3.35;;;;;;;8.23;100.00;95405.44;10160080;29;20036;-72
2021/10/10 07:29:46;;;;;;;3.67;2.45;;;;;;;8.31;100.00;95400.50;10186464;29;20044;-71
2021/10/10 07:34:46;;;;;;;4.28;2.45;;;;;;;8.24;100.00;95399.03;10172979;29;20522;-70
2021/10/10 07:39:47;;;;;;;4.13;2.63;;;;;;;8.19;100.00;95405.09;10146194;29;20143;-75
2021/10/10 07:44:51;;;;;;;3.05;2.03;;;;;;;8.24;100.00;95413.22;10166330;29;20367;-74
2021/10/10 07:49:52;;;;;;;6.45;2.38;;;;;;;8.31;100.00;95405.06;10163024;29;20043;-73
2021/10/10 07:54:53;;;;;;;5.93;2.45;;;;;;;8.47;100.00;95408.81;10162805;29;20032;-74
2021/10/10 07:59:53;;;;;;;3.95;2.53;;;;;;;8.58;100.00;95415.16;10162050;29;20146;-75
2021/10/10 08:04:53;;;;;;;4.27;2.47;;;;;;;8.74;100.00;95411.66;10162018;29;20056;-77
2021/10/10 08:09:54;;;;;;;3.07;2.43;;;;;;;8.80;100.00;95418.72;10162808;29;20292;-78
2021/10/10 08:14:54;;;;;;;4.13;2.40;;;;;;;8.81;100.00;95416.88;10164184;29;20294;-75
2021/10/10 08:19:54;;;;;;;5.73;2.70;;;;;;;8.70;100.00;95422.06;10165128;29;20303;-75
2021/10/10 08:24:55;;;;;;;6.80;3.30;;;;;;;8.55;100.00;95432.53;10164516;29;20280;-75
2021/10/10 08:29:55;;;;;;;3.72;2.70;;;;;;;8.59;100.00;95430.19;10167023;29;20387;-73
2021/10/10 08:34:56;;;;;;;2.87;2.10;;;;;;;8.73;100.00;95434.16;10181064;29;20091;-75
2021/10/10 08:39:56;;;;;;;6.07;2.85;;;;;;;8.75;100.00;95433.91;10164076;29;20655;-76
2021/10/10 08:45:07;;;;;;;5.10;3.00;;;;;;;8.87;100.00;95418.56;10162806;29;20028;-71
2021/10/10 08:50:20;;;;;;;3.90;2.45;;;;;;;8.77;100.00;95407.69;10156748;29;20777;-72
2021/10/10 08:55:20;;;;;;;4.43;2.85;;;;;;;8.56;100.00;95404.69;10163334;29;20111;-72
2021/10/10 09:00:47;;;;;;;4.40;2.90;;;;;;;8.46;100.00;95408.00;10162343;29;20032;-73
2021/10/10 09:05:46;;;;;;;5.10;2.90;;;;;;;8.37;100.00;95407.56;10162838;29;20044;-78
2021/10/10 09:10:58;;;;;;;3.45;2.30;;;;;;;8.34;100.00;95404.56;10162550;29;20055;-76
2021/10/10 09:15:58;;;;;;;3.25;2.20;;;;;;;8.29;100.00;95393.75;10162673;29;20028;-72
2021/10/10 09:21:27;;;;;;;3.08;2.20;;;;;;;8.34;100.00;95391.16;10161600;29;20502;-72
2021/10/10 09:26:41;;;;;;;5.38;2.38;;;;;;;8.40;100.00;95392.91;10161473;29;20032;-73
2021/10/10 09:31:41;;;;;;;3.53;2.40;;;;;;;8.43;100.00;95392.41;10168526;29;20039;-77
2021/10/10 09:36:42;;;;;;;3.30;2.33;;;;;;;8.60;100.00;95395.09;10200436;29;20031;-77
2021/10/10 09:41:54;;;;;;;7.60;3.35;;;;;;;8.72;100.00;95392.31;10169333;29;20656;-70
2021/10/10 09:46:59;;;;;;;3.75;2.47;;;;;;;8.72;100.00;95384.28;10190949;29;20106;-70
2021/10/10 09:52:08;;;;;;;4.68;2.90;;;;;;;8.76;100.00;95389.97;10200075;29;20039;-77
2021/10/10 09:57:09;;;;;;;3.65;2.33;;;;;;;8.73;100.00;95380.56;10179302;29;20032;-75
2021/10/10 10:02:10;;;;;;;3.60;2.10;;;;;;;8.71;100.00;95372.75;10183295;29;20052;-73
2021/10/10 10:07:15;;;;;;;2.70;1.80;;;;;;;8.68;100.00;95370.59;10160241;29;20578;-71
2021/10/10 10:12:18;;;;;;;3.33;2.40;;;;;;;8.62;100.00;95374.22;10160126;29;20032;-74
2021/10/10 10:17:23;;;;;;;2.20;1.55;;;;;;;8.64;100.00;95377.50;10141581;29;20024;-72
2021/10/10 10:22:25;;;;;;;3.55;1.30;;;;;;;8.58;100.00;95377.66;10159587;29;20040;-72
2021/10/10 10:27:26;;;;;;;3.08;1.50;;;;;;;8.54;100.00;95382.69;10159075;29;20040;-72
2021/10/10 10:32:30;;;;;;;1.77;1.13;;;;;;;8.50;100.00;95381.56;10179219;29;20490;-69
2021/10/10 10:37:52;;;;;;;3.28;2.13;;;;;;;8.58;100.00;95388.38;10159842;29;20039;-73
2021/10/10 10:42:54;;;;;;;5.78;3.25;;;;;;;8.58;100.00;95394.53;10143032;29;20062;-75
2021/10/10 10:47:57;;;;;;;5.30;3.25;;;;;;;8.53;100.00;95383.75;10158934;29;20111;-73
2021/10/10 10:53:02;;;;;;;4.30;2.65;;;;;;;8.50;100.00;95386.91;10139286;29;20414;-71
2021/10/10 10:58:05;;;;;;;4.13;2.78;;;;;;;8.45;100.00;95384.94;10159876;29;20031;-74
2021/10/10 11:03:16;;;;;;;3.78;2.67;;;;;;;8.51;100.00;95384.00;10158897;29;20079;-69
2021/10/10 11:08:16;;;;;;;2.17;1.92;;;;;;;8.54;100.00;95385.38;10161483;29;20032;-71
2021/10/10 11:13:23;;;;;;;3.53;2.47;;;;;;;8.52;100.00;95382.13;10157981;29;20486;-73
2021/10/10 11:18:27;;;;;;;7.82;2.83;;;;;;;8.60;100.00;95370.19;10159976;29;20459;-71
2021/10/10 11:23:28;;;;;;;2.92;2.15;;;;;;;8.74;100.00;95360.75;10157936;29;20135;-71
2021/10/10 11:28:46;;;;;;;4.78;2.20;;;;;;;8.71;100.00;95366.59;10184188;29;20028;-73
2021/10/10 11:33:56;;;;;;;5.70;2.67;;;;;;;8.66;100.00;95367.31;10153114;29;20066;-73
2021/10/10 11:38:56;;;;;;;4.43;2.00;;;;;;;8.77;100.00;95354.09;10195260;29;20032;-74
2021/10/10 11:44:06;;;;;;;3.88;2.63;;;;;;;8.88;100.00;95361.22;10194574;29;20036;-75
2021/10/10 11:49:44;;;;;;;3.63;2.17;;;;;;;9.00;100.00;95355.72;10198283;29;20123;-71
2021/10/10 11:54:48;;;;;;;2.65;1.60;;;;;;;8.82;100.00;95352.28;10211967;29;20035;-74
2021/10/10 11:59:51;;;;;;;2.25;1.60;;;;;;;8.97;100.00;95349.03;10196919;29;20481;-71
2021/10/10 12:05:09;;;;;;;3.38;1.80;;;;;;;8.99;100.00;95341.53;10212333;29;20429;-73
2021/10/10 12:10:12;;;;;;;4.78;2.28;;;;;;;8.98;100.00;95347.13;10162112;29;20490;-72
2021/10/10 12:15:18;;;;;;;5.03;2.22;;;;;;;9.00;100.00;95342.31;10133242;29;20033;-73
2021/10/10 12:20:23;;;;;;;2.50;1.63;;;;;;;8.85;100.00;95337.59;10147255;29;20036;-74
2021/10/10 12:25:29;;;;;;;3.38;1.92;;;;;;;8.49;100.00;95347.78;10161751;29;20129;-73
2021/10/10 12:30:56;;;;;;;4.80;2.63;;;;;;;8.30;100.00;95350.69;10164301;29;20195;-74
2021/10/10 12:35:56;;;;;;;3.83;2.47;;;;;;;8.18;100.00;95353.44;10189751;29;20036;-74
2021/10/10 12:40:58;;;;;;;7.28;3.08;;;;;;;8.15;100.00;95359.28;10169636;29;20035;-74
2021/10/10 12:46:01;;;;;;;4.88;3.17;;;;;;;8.18;100.00;95348.06;10163362;29;20034;-75
2021/10/10 12:51:04;;;;;;;5.90;3.08;;;;;;;8.04;100.00;95352.94;10162585;29;20043;-74
2021/10/10 12:56:15;;;;;;;4.70;2.53;;;;;;;8.09;100.00;95354.88;10163047;29;20781;-74
2021/10/10 13:01:17;;;;;;;4.72;2.45;;;;;;;8.17;100.00;95357.16;10160178;29;20051;-70
2021/10/10 13:06:19;;;;;;;6.20;3.35;;;;;;;8.08;100.00;95363.16;10161773;29;20036;-73
2021/10/10 13:11:23;;;;;;;6.85;3.45;;;;;;;8.01;100.00;95358.78;10160355;29;20035;-73
2021/10/10 13:16:23;;;;;;;5.70;3.58;;;;;;;8.04;100.00;95358.28;10168270;29;20502;-72
2021/10/10 13:21:24;;;;;;;5.30;2.38;;;;;;;8.04;100.00;95352.94;10171399;29;20047;-71
2021/10/10 13:26:27;;;;;;;4.95;2.97;;;;;;;8.03;100.00;95345.13;10162603;29;20597;-69
2021/10/10 13:31:27;;;;;;;8.88;4.53;;;;;;;8.08;100.00;95358.63;10201475;29;20027;-73
2021/10/10 13:36:28;;;;;;;5.45;3.42;;;;;;;8.06;100.00;95347.31;10181855;29;20479;-72
2021/10/10 13:41:28;;;;;;;6.85;3.45;;;;;;;8.12;100.00;95348.22;10192480;29;20034;-73
2021/10/10 13:46:29;;;;;;;6.03;3.55;;;;;;;8.17;100.00;95345.63;10160886;29;20028;-70
2021/10/10 13:51:30;;;;;;;7.78;4.40;;;;;;;8.19;100.00;95354.22;10175735;29;20040;-72
2021/10/10 13:56:30;;;;;;;11.75;4.72;;;;;;;8.18;100.00;95336.56;10160480;29;20028;-75
2021/10/10 14:01:31;;;;;;;5.93;4.20;;;;;;;8.13;100.00;95331.13;10176149;29;20054;-74
2021/10/10 14:06:31;;;;;;;6.65;4.07;;;;;;;8.13;100.00;95342.63;10158178;29;20558;-70
2021/10/10 14:11:31;;;;;;;13.30;6.03;;;;;;;8.19;100.00;95332.81;10156967;29;20039;-70
2021/10/10 14:16:34;;;;;;;12.40;6.17;;;;;;;8.20;100.00;95331.75;10138722;29;20718;-71
2021/10/10 14:21:36;;;;;;;15.68;7.57;;;;;;;8.17;100.00;95334.94;10175390;29;20296;-70
2021/10/10 14:26:36;;;;;;;21.67;9.63;;;;;;;8.20;100.00;95323.72;10143561;29;20417;-70
2021/10/10 14:31:37;;;;;;;17.87;9.07;;;;;;;8.28;100.00;95320.66;10159051;29;20024;-71
2021/10/10 14:36:38;;;;;;;14.93;7.15;;;;;;;8.19;100.00;95316.75;10161014;29;20302;-70
2021/10/10 14:41:42;;;;;;;13.95;4.57;;;;;;;8.17;100.00;95308.16;10160050;29;20111;-73
2021/10/10 14:46:50;;;;;;;7.60;3.85;;;;;;;8.18;100.00;95310.59;10157893;29;20031;-74
2021/10/10 14:51:51;;;;;;;7.80;3.25;;;;;;;8.12;100.00;95321.44;10155051;29;20123;-70
2021/10/10 14:56:51;;;;;;;6.32;2.40;;;;;;;8.12;100.00;95322.28;10142665;29;20652;-69
2021/10/10 15:01:53;;;;;;;6.15;3.38;;;;;;;8.15;100.00;95319.13;10174201;29;20048;-72
2021/10/10 15:06:53;;;;;;;3.85;2.53;;;;;;;8.28;100.00;95320.66;10173921;29;20472;-74
2021/10/10 15:11:55;;;;;;;9.20;2.60;;;;;;;8.21;100.00;95323.47;10158233;29;20111;-70
2021/10/10 15:16:55;;;;;;;5.47;2.55;;;;;;;8.18;100.00;95325.84;10156975;29;20284;-74
2021/10/10 15:21:56;;;;;;;7.45;4.25;;;;;;;8.15;100.00;95310.25;10166109;29;20028;-74
2021/10/10 15:26:56;;;;;;;6.30;2.97;;;;;;;8.10;100.00;95328.94;10197467;29;20176;-75
2021/10/10 15:31:58;;;;;;;7.40;4.38;;;;;;;7.99;100.00;95334.09;10140877;29;20045;-68
2021/10/10 15:37:00;;;;;;;11.82;6.75;;;;;;;7.93;100.00;95323.56;10140565;29;20021;-73
2021/10/10 15:42:03;;;;;;;10.73;5.18;;;;;;;7.85;100.00;95317.53;10157356;29;20116;-72
2021/10/10 15:47:04;;;;;;;9.90;4.90;;;;;;;7.82;100.00;95312.66;10172270;29;20032;-66
2021/10/10 15:52:05;;;;;;;10.52;5.40;;;;;;;7.81;100.00;95308.34;10156887;29;20025;-73
2021/10/10 15:57:06;;;;;;;10.90;6.88;;;;;;;7.90;100.00;95303.44;10158982;29;20593;-72
2021/10/10 16:02:07;;;;;;;12.32;7.38;;;;;;;7.95;100.00;95308.06;10197783;29;20048;-70
2021/10/10 16:07:08;;;;;;;17.63;8.13;;;;;;;8.00;100.00;95308.97;10185929;29;20034;-68
2021/10/10 16:12:08;;;;;;;14.00;6.78;;;;;;;8.04;100.00;95299.38;10165067;29;20032;-67
2021/10/10 16:17:08;;;;;;;8.60;6.05;;;;;;;8.04;100.00;95299.38;10164209;29;20116;-72
2021/10/10 16:22:09;;;;;;;11.67;5.53;;;;;;;7.98;100.00;95327.13;10198974;29;20036;-70
2021/10/10 16:27:09;;;;;;;10.85;6.05;;;;;;;8.06;100.00;95325.91;10203703;29;20300;-69
2021/10/10 16:32:10;;;;;;;7.07;4.80;;;;;;;7.99;100.00;95314.56;10189721;29;20451;-72
2021/10/10 16:42:29;;;;;;;7.15;4.47;;;;;;;8.06;100.00;95317.09;10202265;29;20267;-72
2021/10/10 16:47:30;;;;;;;7.93;4.30;;;;;;;7.88;100.00;95305.53;10202485;29;20020;-67
2021/10/10 16:52:30;;;;;;;6.85;4.28;;;;;;;7.78;100.00;95316.88;10167556;29;20276;-67
2021/10/10 16:57:31;;;;;;;7.37;4.53;;;;;;;7.76;100.00;95308.28;10169238;29;20058;-66
2021/10/10 17:02:32;;;;;;;7.20;4.43;;;;;;;7.88;100.00;95313.56;10162055;29;20311;-66
2021/10/10 17:07:32;;;;;;;9.65;4.72;;;;;;;7.83;100.00;95313.50;10162218;29;20770;-72
2021/10/10 17:12:33;;;;;;;9.70;5.88;;;;;;;7.76;100.00;95308.28;10159283;29;20507;-66
2021/10/10 17:17:34;;;;;;;8.65;5.25;;;;;;;7.63;100.00;95317.44;10144680;29;20521;-67
2021/10/10 17:22:34;;;;;;;8.20;4.82;;;;;;;7.60;100.00;95315.22;10161249;29;20115;-69
2021/10/10 17:27:34;;;;;;;11.45;5.70;;;;;;;7.55;100.00;95316.97;10193540;29;20024;-69
2021/10/10 17:32:35;;;;;;;8.70;5.57;;;;;;;7.58;100.00;95325.34;10180649;29;20036;-65
2021/10/10 17:37:35;;;;;;;11.30;5.28;;;;;;;7.64;100.00;95320.91;10176015;29;20437;-72
2021/10/10 17:42:36;;;;;;;10.90;6.55;;;;;;;7.63;100.00;95313.94;10170375;29;20031;-67
2021/10/10 17:47:36;;;;;;;10.88;6.03;;;;;;;7.69;100.00;95303.09;10165279;29;20028;-67
2021/10/10 17:52:37;;;;;;;8.90;4.47;;;;;;;7.68;100.00;95306.00;10199467;29;20146;-67
2021/10/10 17:57:41;;;;;;;6.55;3.75;;;;;;;7.69;100.00;95316.47;10199329;29;20280;-65
2021/10/10 18:13:19;;;;;;;10.48;5.45;;;;;;;7.77;100.00;95306.41;10159982;29;20382;-73
2021/10/10 18:18:19;;;;;;;9.63;5.65;;;;;;;7.79;100.00;95312.34;10175208;29;20032;-66
2021/10/10 18:23:20;;;;;;;11.00;6.53;;;;;;;7.87;100.00;95315.44;10158722;29;20371;-72
2021/10/10 18:28:23;;;;;;;12.07;6.78;;;;;;;7.97;100.00;95308.66;10159069;29;20275;-73
2021/10/10 18:33:23;;;;;;;10.88;5.53;;;;;;;7.87;100.00;95306.63;10158966;29;20036;-74
2021/10/10 18:38:24;;;;;;;10.57;6.10;;;;;;;7.98;100.00;95302.22;10191359;29;20502;-68
2021/10/10 18:43:24;;;;;;;9.17;5.33;;;;;;;8.07;100.00;95308.81;10159837;29;20654;-71
2021/10/10 18:48:25;;;;;;;9.35;5.30;;;;;;;8.17;100.00;95314.31;10174799;29;20282;-74
2021/10/10 18:53:25;;;;;;;9.27;5.35;;;;;;;8.26;100.00;95306.69;10173333;29;20122;-68
2021/10/10 18:58:26;;;;;;;6.18;4.68;;;;;;;8.25;100.00;95305.06;10157925;29;20036;-71
2021/10/10 19:03:26;;;;;;;11.60;6.18;;;;;;;8.28;100.00;95293.88;10157975;29;20052;-65
2021/10/10 19:08:27;;;;;;;10.37;6.00;;;;;;;8.31;100.00;95285.34;10158144;29;20028;-74
2021/10/10 19:13:27;;;;;;;8.05;5.07;;;;;;;8.27;100.00;95281.53;10172851;29;20284;-68
2021/10/10 19:18:28;;;;;;;9.25;4.63;;;;;;;8.27;100.00;95284.19;10166636;29;20032;-66
2021/10/10 19:23:28;;;;;;;9.45;4.47;;;;;;;8.36;100.00;95284.63;10188350;29;20054;-73
2021/10/10 19:28:30;;;;;;;6.77;4.47;;;;;;;8.37;100.00;95276.34;10145461;29;20071;-65
2021/10/10 19:33:31;;;;;;;9.02;5.57;;;;;;;8.38;100.00;95283.28;10171336;29;20310;-64
2021/10/10 19:38:32;;;;;;;8.80;4.63;;;;;;;8.43;100.00;95276.41;10173280;29;20024;-64
2021/10/10 19:43:32;;;;;;;8.38;4.15;;;;;;;8.39;100.00;95274.22;10174363;29;20039;-73
2021/10/10 19:48:33;;;;;;;6.32;4.20;;;;;;;8.41;100.00;95273.16;10155893;29;20028;-67
2021/10/10 19:53:35;;;;;;;5.83;3.57;;;;;;;8.42;100.00;95264.09;10157465;29;20105;-74
2021/10/10 19:58:35;;;;;;;3.50;2.38;;;;;;;8.48;100.00;95268.47;10156457;29;20316;-68
2021/10/10 20:03:36;;;;;;;3.67;2.45;;;;;;;8.39;100.00;95266.19;10156468;29;20127;-67
2021/10/10 20:08:37;;;;;;;4.90;2.80;;;;;;;8.49;100.00;95275.47;10173381;29;20024;-66
2021/10/10 20:13:39;;;;;;;6.55;3.13;;;;;;;8.50;100.00;95275.22;10172473;29;20032;-64
2021/10/10 20:18:40;;;;;;;3.85;2.75;;;;;;;8.49;100.00;95273.59;10157329;29;20032;-71
2021/10/10 20:23:40;;;;;;;2.80;2.03;;;;;;;8.48;100.00;95266.59;10157378;29;20028;-72
2021/10/10 20:28:41;;;;;;;2.67;1.52;;;;;;;8.44;100.00;95243.19;10172366;29;20039;-67
2021/10/10 20:33:42;;;;;;;1.67;1.33;;;;;;;8.32;100.00;95246.78;10171642;29;20034;-68
2021/10/10 20:38:42;;;;;;;2.47;1.98;;;;;;;8.34;100.00;95244.69;10172808;29;20127;-66
2021/10/10 20:43:43;;;;;;;3.00;1.85;;;;;;;8.39;100.00;95252.78;10173702;29;20024;-68
2021/10/10 20:48:43;;;;;;;2.00;1.47;;;;;;;8.38;100.00;95250.34;10162780;29;20422;-72
2021/10/10 20:53:43;;;;;;;2.63;1.63;;;;;;;8.38;100.00;95256.50;10163892;29;20274;-70
2021/10/10 20:58:44;;;;;;;1.67;1.38;;;;;;;8.37;100.00;95248.72;10178379;29;20046;-73
2021/10/10 21:03:44;;;;;;;2.35;1.73;;;;;;;8.35;100.00;95238.25;10163777;29;20056;-72
2021/10/10 21:08:46;;;;;;;1.33;1.20;;;;;;;8.41;100.00;95243.69;10178090;29;20055;-65
2021/10/10 21:13:49;;;;;;;2.08;1.73;;;;;;;8.36;100.00;95223.81;10162307;29;20061;-72
2021/10/10 21:18:50;;;;;;;2.60;1.85;;;;;;;8.38;100.00;95215.53;10162918;29;20128;-73
2021/10/10 21:23:50;;;;;;;2.80;2.10;;;;;;;8.42;100.00;95222.03;10178086;29;20097;-72
2021/10/10 21:28:54;;;;;;;2.13;1.92;;;;;;;8.50;100.00;95218.94;10177625;29;20850;-70
2021/10/10 21:34:11;;;;;;;3.65;2.60;;;;;;;8.48;100.00;95212.22;10176853;29;20095;-73
2021/10/10 21:39:16;;;;;;;4.82;2.35;;;;;;;8.53;100.00;95201.56;10160679;29;20050;-73
2021/10/10 21:44:16;;;;;;;4.68;2.10;;;;;;;8.64;100.00;95199.84;10163389;29;20123;-69
2021/10/10 21:49:17;;;;;;;3.33;2.30;;;;;;;8.60;100.00;95179.97;10160422;29;20107;-68
2021/10/10 21:54:17;;;;;;;2.13;1.63;;;;;;;8.60;100.00;95172.72;10176964;29;20059;-74
2021/10/10 21:59:18;;;;;;;3.83;1.80;;;;;;;8.54;100.00;95161.16;10160191;29;20028;-69
2021/10/10 22:04:19;;;;;;;2.53;1.80;;;;;;;8.53;100.00;95156.03;10176269;29;20319;-76
2021/10/10 22:09:19;;;;;;;2.80;1.88;;;;;;;8.59;100.00;95146.19;10161391;29;20024;-73
2021/10/10 22:14:21;;;;;;;1.95;1.80;;;;;;;8.61;100.00;95123.44;10160880;29;20024;-76
2021/10/10 22:19:21;;;;;;;2.13;1.65;;;;;;;8.60;100.00;95118.34;10176425;29;20035;-69
2021/10/10 22:24:26;;;;;;;4.22;1.83;;;;;;;8.57;100.00;95127.69;10176887;29;20025;-69
2021/10/10 22:34:46;;;;;;;2.25;1.83;;;;;;;8.58;100.00;95112.41;10160819;29;20032;-72
2021/10/10 22:39:46;;;;;;;2.33;1.73;;;;;;;8.57;100.00;95108.09;10161305;29;20024;-71
2021/10/10 22:44:46;;;;;;;2.45;1.73;;;;;;;8.65;100.00;95099.63;10161293;29;20039;-72
2021/10/10 22:49:47;;;;;;;2.10;1.90;;;;;;;8.67;100.00;95084.94;10175116;29;20039;-72
2021/10/10 22:54:50;;;;;;;2.67;2.07;;;;;;;8.61;100.00;95083.25;10159204;29;20090;-73
2021/10/10 22:59:51;;;;;;;3.45;2.10;;;;;;;8.57;100.00;95070.59;10175031;29;20710;-72
2021/10/10 23:04:51;;;;;;;2.65;2.13;;;;;;;8.57;100.00;95068.75;10159784;29;20062;-72
2021/10/10 23:09:52;;;;;;;2.70;2.08;;;;;;;8.62;100.00;95054.59;10158496;29;20039;-67
2021/10/10 23:14:55;;;;;;;2.60;2.30;;;;;;;8.62;100.00;95062.63;10158815;29;20024;-73
2021/10/10 23:19:55;;;;;;;4.22;2.65;;;;;;;8.61;100.00;95052.97;10158509;29;20670;-73
2021/10/10 23:24:56;;;;;;;4.37;2.77;;;;;;;8.66;100.00;95056.50;10142919;29;20016;-72
2021/10/10 23:29:56;;;;;;;4.80;3.30;;;;;;;8.68;100.00;95056.28;10160195;29;20278;-66
2021/10/10 23:34:56;;;;;;;5.13;3.20;;;;;;;8.73;100.00;95048.28;10174090;29;20291;-72
2021/10/10 23:39:57;;;;;;;4.90;3.63;;;;;;;8.76;100.00;95045.06;10173987;29;20032;-72
2021/10/10 23:44:58;;;;;;;7.43;4.28;;;;;;;8.77;100.00;95041.34;10158886;29;20031;-71
2021/10/10 23:49:58;;;;;;;6.80;4.30;;;;;;;8.67;100.00;95042.06;10157689;29;20043;-67
2021/10/10 23:54:59;;;;;;;6.27;4.10;;;;;;;8.64;100.00;95036.41;10157505;29;20111;-72